Decoded Metar for CYOO ( in ) (IATA:) | Meteo·Mobile Aviation Weather
aviador You're here:

CYOO Decoded Metar

in
Report Time2019-06-27 08:00:00
UTC Time2019-06-27 09:11:07
Flight Rules Old
WindCalm
Visibility9999 m
Phenomena:N/A
Clouds:N/A
Expected CloudBase > 800 ft AGL from Temp-Dew spread
CeilingNone
Temp16°C
Dew Point14°C (88% RH)
QNH1019 hPa
Raw Report
METAR CYOO 270800Z AUTO 00000KT 9SM CLR 16/14 A3010 RMK SLP195=

Extra information for CYOO:More info

Social comments